Time;durP1;ratioP1;P1;durP2;ratioP2;P2;SDS_P1;SDS_P2;PMS_P1;PMS_P2;Temp;Humidity;BMP_temperature;BMP_pressure;BME280_temperature;BME280_humidity;BME280_pressure;Samples;Min_cycle;Max_cycle;Signal;HPM_P1;HPM_P2
2021/06/24 00:01:15;;;;;;;5.97;3.87;;;17.80;99.90;;;;;;5007403;28;20291;-67
2021/06/24 00:03:41;;;;;;;5.73;4.20;;;17.80;99.90;;;;;;4995706;28;20189;-67
2021/06/24 00:06:07;;;;;;;4.80;4.40;;;17.80;99.90;;;;;;4989456;28;20228;-67
2021/06/24 00:08:34;;;;;;;4.73;4.00;;;17.80;99.90;;;;;;5003438;28;20281;-68
2021/06/24 00:11:00;;;;;;;4.13;3.73;;;17.80;99.90;;;;;;4994022;28;20715;-68
2021/06/24 00:13:27;;;;;;;4.80;3.90;;;17.80;99.90;;;;;;4995188;28;20738;-67
2021/06/24 00:15:53;;;;;;;4.70;4.27;;;17.70;99.90;;;;;;4975174;28;20655;-67
2021/06/24 00:18:19;;;;;;;4.83;4.30;;;17.70;99.90;;;;;;5005271;28;21236;-67
2021/06/24 00:20:45;;;;;;;4.73;4.33;;;17.70;99.90;;;;;;5007184;28;20623;-67
2021/06/24 00:23:13;;;;;;;4.37;3.97;;;17.70;99.90;;;;;;4982710;28;20433;-67
2021/06/24 00:25:39;;;;;;;4.70;4.27;;;17.70;99.90;;;;;;4997294;28;20865;-67
2021/06/24 00:28:05;;;;;;;5.70;4.37;;;17.70;99.90;;;;;;4995341;28;20985;-67
2021/06/24 00:30:35;;;;;;;4.33;4.00;;;17.70;99.90;;;;;;5003177;28;20654;-67
2021/06/24 00:33:01;;;;;;;5.60;4.77;;;17.60;99.90;;;;;;5017599;28;20702;-67
2021/06/24 00:35:27;;;;;;;4.87;4.00;;;17.60;99.90;;;;;;5011973;28;20773;-67
2021/06/24 00:37:52;;;;;;;4.97;4.47;;;17.60;99.90;;;;;;5008593;28;20639;-67
2021/06/24 00:40:18;;;;;;;5.67;4.10;;;17.60;99.90;;;;;;4999507;28;20278;-67
2021/06/24 00:42:44;;;;;;;4.63;4.20;;;17.50;99.90;;;;;;5005102;28;22332;-68
2021/06/24 00:45:12;;;;;;;4.83;4.43;;;17.50;99.90;;;;;;5005309;28;20228;-67
2021/06/24 00:47:38;;;;;;;5.67;4.33;;;17.60;99.90;;;;;;5008366;28;20747;-67
2021/06/24 00:50:06;;;;;;;5.53;4.13;;;17.50;99.90;;;;;;5006579;28;20685;-67
2021/06/24 00:52:32;;;;;;;5.60;3.83;;;17.50;99.90;;;;;;5012941;28;20677;-68
2021/06/24 00:54:58;;;;;;;5.67;3.87;;;17.50;99.90;;;;;;5007163;28;20750;-67
2021/06/24 00:57:25;;;;;;;4.40;4.00;;;17.50;99.90;;;;;;5015908;28;20761;-68
2021/06/24 00:59:51;;;;;;;4.53;4.10;;;17.50;99.90;;;;;;5015075;28;20706;-67
2021/06/24 01:02:17;;;;;;;4.37;3.97;;;17.50;99.90;;;;;;5010530;28;20628;-67
2021/06/24 01:04:43;;;;;;;5.53;4.37;;;17.50;99.90;;;;;;5016955;28;20615;-67
2021/06/24 01:07:09;;;;;;;5.13;4.63;;;17.40;99.90;;;;;;5006176;28;20658;-67
2021/06/24 01:09:35;;;;;;;4.93;4.50;;;17.40;99.90;;;;;;5002839;28;20304;-68
2021/06/24 01:12:06;;;;;;;6.00;4.77;;;17.40;99.90;;;;;;5016049;28;20196;-68
2021/06/24 01:14:32;;;;;;;4.60;4.20;;;17.40;99.90;;;;;;5023393;28;20655;-67
2021/06/24 01:16:57;;;;;;;6.00;4.57;;;17.40;99.90;;;;;;5024005;28;20635;-67
2021/06/24 01:19:23;;;;;;;4.63;4.23;;;17.40;99.90;;;;;;5015145;28;20294;-67
2021/06/24 01:21:48;;;;;;;5.27;4.73;;;17.40;99.90;;;;;;5010232;28;20193;-72
2021/06/24 01:24:15;;;;;;;4.90;4.27;;;17.40;99.90;;;;;;5011942;28;20400;-68
2021/06/24 01:26:41;;;;;;;7.00;4.53;;;17.40;99.90;;;;;;5019181;28;20244;-67
2021/06/24 01:29:08;;;;;;;5.20;4.70;;;17.40;99.90;;;;;;5018709;28;20643;-68
2021/06/24 01:31:34;;;;;;;5.17;4.47;;;17.40;99.90;;;;;;5014813;28;20615;-67
2021/06/24 01:34:04;;;;;;;5.03;4.47;;;17.40;99.90;;;;;;5004448;28;20683;-67
2021/06/24 01:36:30;;;;;;;6.47;4.70;;;17.30;99.90;;;;;;5016309;28;20716;-67
2021/06/24 01:38:55;;;;;;;5.47;4.60;;;17.30;99.90;;;;;;4999020;28;20770;-67
2021/06/24 01:41:21;;;;;;;5.20;4.70;;;17.40;99.90;;;;;;5010905;28;22004;-67
2021/06/24 01:43:46;;;;;;;5.33;4.83;;;17.30;99.90;;;;;;5018281;28;20204;-67
2021/06/24 01:46:12;;;;;;;10.47;4.93;;;17.30;99.90;;;;;;5000553;28;20764;-67
2021/06/24 01:48:39;;;;;;;6.67;5.47;;;17.40;99.90;;;;;;4999195;28;20205;-67
2021/06/24 01:51:05;;;;;;;5.70;4.70;;;17.40;99.90;;;;;;4991984;28;20288;-68
2021/06/24 01:53:30;;;;;;;5.70;5.30;;;17.40;99.90;;;;;;5008736;28;20771;-68
2021/06/24 01:55:56;;;;;;;5.60;5.10;;;17.40;99.90;;;;;;4968980;28;20225;-68
2021/06/24 01:58:25;;;;;;;4.77;4.40;;;17.30;99.90;;;;;;4995832;28;20500;-68
2021/06/24 02:00:55;;;;;;;5.80;5.27;;;17.30;99.90;;;;;;4985593;28;20632;-68
2021/06/24 02:03:23;;;;;;;5.20;4.70;;;17.30;99.90;;;;;;4999153;28;20623;-68
2021/06/24 02:05:56;;;;;;;5.83;5.20;;;17.30;99.90;;;;;;4992587;28;21228;-68
2021/06/24 02:08:24;;;;;;;4.83;4.40;;;17.30;99.90;;;;;;4984470;28;21661;-68
2021/06/24 02:10:51;;;;;;;7.33;5.17;;;17.30;99.90;;;;;;4983989;28;20699;-68
2021/06/24 02:13:17;;;;;;;6.17;4.90;;;17.30;99.90;;;;;;4985890;28;20663;-68
2021/06/24 02:15:43;;;;;;;5.70;5.10;;;17.30;99.90;;;;;;4994377;28;21083;-68
2021/06/24 02:18:09;;;;;;;5.63;5.10;;;17.30;99.90;;;;;;4974836;28;20202;-69
2021/06/24 02:20:38;;;;;;;6.30;5.50;;;17.30;99.90;;;;;;4973309;28;20940;-68
2021/06/24 02:23:04;;;;;;;6.13;5.50;;;17.30;99.90;;;;;;4993985;28;21020;-68
2021/06/24 02:25:32;;;;;;;5.73;5.10;;;17.20;99.90;;;;;;4990671;28;20959;-68
2021/06/24 02:27:58;;;;;;;5.87;5.23;;;17.20;99.90;;;;;;4990884;28;20634;-68
2021/06/24 02:30:23;;;;;;;6.77;5.70;;;17.10;99.90;;;;;;4996461;28;20667;-68
2021/06/24 02:32:50;;;;;;;5.57;4.97;;;17.10;99.90;;;;;;4986724;28;20185;-68
2021/06/24 02:35:16;;;;;;;5.27;4.80;;;17.10;99.90;;;;;;5003008;28;20243;-68
2021/06/24 02:37:43;;;;;;;6.67;5.43;;;17.10;99.90;;;;;;4998097;28;20627;-68
2021/06/24 02:40:10;;;;;;;7.00;5.50;;;17.10;99.90;;;;;;4988599;28;21048;-68
2021/06/24 02:42:37;;;;;;;5.70;5.30;;;17.00;99.90;;;;;;4986283;28;21049;-68
2021/06/24 02:45:04;;;;;;;5.63;4.97;;;17.10;99.90;;;;;;4991384;28;20652;-67
2021/06/24 02:47:30;;;;;;;9.50;5.83;;;17.10;99.90;;;;;;4992933;28;22157;-68
2021/06/24 02:49:56;;;;;;;7.00;5.27;;;17.00;99.90;;;;;;5013152;28;20770;-68
2021/06/24 02:52:21;;;;;;;5.67;5.27;;;17.10;99.90;;;;;;4992560;28;20236;-68
2021/06/24 02:54:47;;;;;;;6.73;5.80;;;17.10;99.90;;;;;;4993598;28;20209;-68
2021/06/24 02:57:12;;;;;;;6.23;5.60;;;17.00;99.90;;;;;;4994388;28;20190;-68
2021/06/24 02:59:38;;;;;;;9.37;6.10;;;17.00;99.90;;;;;;4993868;28;20256;-68
2021/06/24 03:02:04;;;;;;;6.07;5.47;;;17.00;99.90;;;;;;4994304;28;20192;-68
2021/06/24 03:04:30;;;;;;;7.20;6.50;;;16.90;99.90;;;;;;4996118;28;20257;-68
2021/06/24 03:06:55;;;;;;;10.10;5.50;;;16.90;99.90;;;;;;4994613;28;23282;-68
2021/06/24 03:09:21;;;;;;;5.97;5.57;;;16.90;99.90;;;;;;5010670;28;20213;-68
2021/06/24 03:11:49;;;;;;;6.70;6.10;;;16.90;99.90;;;;;;4970313;28;20284;-67
2021/06/24 03:14:15;;;;;;;6.20;5.60;;;16.90;99.90;;;;;;4996283;28;20288;-67
2021/06/24 03:16:41;;;;;;;6.60;6.00;;;16.90;99.90;;;;;;5004510;28;20640;-67
2021/06/24 03:19:08;;;;;;;6.90;6.30;;;16.90;99.90;;;;;;4992154;28;20219;-67
2021/06/24 03:21:34;;;;;;;6.47;5.83;;;16.90;99.90;;;;;;4986514;28;20636;-67
2021/06/24 03:24:00;;;;;;;6.17;5.57;;;16.90;99.90;;;;;;4991878;28;20685;-67
2021/06/24 03:26:25;;;;;;;6.13;5.63;;;16.90;99.90;;;;;;4996615;28;20277;-67
2021/06/24 03:28:51;;;;;;;6.70;6.10;;;16.90;99.90;;;;;;4983745;28;20205;-67
2021/06/24 03:31:17;;;;;;;6.20;5.70;;;16.90;99.90;;;;;;4972624;28;20643;-67
2021/06/24 03:33:43;;;;;;;6.53;5.93;;;16.90;99.90;;;;;;4992962;28;20194;-67
2021/06/24 03:36:09;;;;;;;8.63;5.70;;;17.00;99.90;;;;;;4994534;28;20683;-68
2021/06/24 03:38:37;;;;;;;5.37;4.97;;;16.90;99.90;;;;;;4973950;28;20210;-67
2021/06/24 03:41:03;;;;;;;6.50;5.90;;;16.90;99.90;;;;;;5001860;28;20194;-67
2021/06/24 03:43:29;;;;;;;8.23;6.47;;;16.90;99.90;;;;;;4988497;28;20675;-68
2021/06/24 03:45:57;;;;;;;6.37;5.77;;;16.80;99.90;;;;;;4978590;28;20743;-67
2021/06/24 03:48:22;;;;;;;6.50;5.90;;;16.80;99.90;;;;;;4981242;28;20186;-68
2021/06/24 03:50:48;;;;;;;8.03;6.60;;;16.80;99.90;;;;;;4991016;28;20635;-67
2021/06/24 03:53:13;;;;;;;7.43;5.97;;;16.80;99.90;;;;;;4985837;28;20193;-67
2021/06/24 03:55:44;;;;;;;6.47;5.87;;;16.80;99.90;;;;;;4990639;28;20558;-67
2021/06/24 03:58:12;;;;;;;6.30;5.80;;;16.80;99.90;;;;;;4991121;28;20197;-68
2021/06/24 04:00:41;;;;;;;6.83;5.80;;;16.80;99.90;;;;;;4992284;28;20650;-67
2021/06/24 04:03:07;;;;;;;6.70;6.00;;;16.80;99.90;;;;;;4978435;28;20620;-67
2021/06/24 04:05:33;;;;;;;7.03;6.33;;;16.80;99.90;;;;;;5012087;28;20763;-68
2021/06/24 04:08:00;;;;;;;6.40;5.40;;;16.80;99.90;;;;;;4981733;28;20624;-67
2021/06/24 04:10:27;;;;;;;6.03;5.47;;;16.80;99.90;;;;;;4990391;28;20653;-68
2021/06/24 04:12:54;;;;;;;7.20;6.50;;;16.80;99.90;;;;;;4994310;28;20742;-67
2021/06/24 04:15:20;;;;;;;6.50;5.90;;;16.80;99.90;;;;;;5002434;28;20684;-67
2021/06/24 04:17:45;;;;;;;6.63;6.00;;;16.80;99.90;;;;;;4995644;28;20758;-68
2021/06/24 04:20:11;;;;;;;10.17;5.93;;;16.80;99.90;;;;;;5001360;28;20665;-67
2021/06/24 04:22:37;;;;;;;6.90;6.20;;;16.80;99.90;;;;;;4994255;28;20308;-67
2021/06/24 04:25:03;;;;;;;7.03;6.10;;;16.80;99.90;;;;;;4987950;28;20189;-67
2021/06/24 04:27:28;;;;;;;6.03;5.43;;;16.80;99.90;;;;;;4993025;28;20197;-69
2021/06/24 04:29:54;;;;;;;6.63;6.00;;;16.80;99.90;;;;;;4998564;28;20656;-67
2021/06/24 04:32:19;;;;;;;6.53;5.97;;;16.80;99.90;;;;;;5002263;28;20181;-67
2021/06/24 04:34:45;;;;;;;6.67;6.07;;;16.80;99.90;;;;;;5010067;28;20214;-65
2021/06/24 04:37:10;;;;;;;7.37;6.77;;;16.80;99.90;;;;;;5006017;28;20189;-67
2021/06/24 04:39:36;;;;;;;6.17;5.67;;;16.80;99.90;;;;;;4992421;28;20292;-67
2021/06/24 04:42:02;;;;;;;6.87;6.23;;;16.80;99.90;;;;;;4986520;28;20319;-67
2021/06/24 04:44:27;;;;;;;6.80;6.20;;;16.80;99.90;;;;;;4987636;28;20555;-67
2021/06/24 04:46:54;;;;;;;7.27;6.40;;;16.80;99.90;;;;;;4991711;28;20213;-67
2021/06/24 04:49:20;;;;;;;7.50;6.67;;;16.80;99.90;;;;;;4979764;28;20216;-68
2021/06/24 04:51:45;;;;;;;6.87;6.20;;;16.80;99.90;;;;;;4978668;28;20962;-68
2021/06/24 04:54:11;;;;;;;5.50;5.10;;;16.80;99.90;;;;;;5001341;28;20209;-68
2021/06/24 04:56:41;;;;;;;7.43;6.27;;;16.90;99.90;;;;;;4988599;28;20224;-68
2021/06/24 04:59:07;;;;;;;6.80;6.30;;;16.90;99.90;;;;;;5012999;28;20312;-68
2021/06/24 05:01:33;;;;;;;6.30;5.80;;;16.90;99.90;;;;;;4989564;28;20815;-67
2021/06/24 05:03:58;;;;;;;6.27;5.67;;;17.00;99.90;;;;;;4987106;28;20194;-67
2021/06/24 05:06:24;;;;;;;8.87;6.50;;;17.00;99.90;;;;;;4994508;28;20746;-69
2021/06/24 05:08:49;;;;;;;8.20;6.40;;;17.00;99.90;;;;;;4974883;28;20237;-68
2021/06/24 05:11:16;;;;;;;7.00;5.47;;;17.00;99.90;;;;;;4971828;28;20189;-68
2021/06/24 05:13:42;;;;;;;5.23;4.80;;;17.10;99.90;;;;;;4972493;28;20205;-68
2021/06/24 05:16:07;;;;;;;4.80;4.40;;;17.10;99.90;;;;;;4989922;28;20640;-69
2021/06/24 05:18:36;;;;;;;5.27;4.43;;;17.20;99.90;;;;;;4986688;28;20651;-68
2021/06/24 05:21:02;;;;;;;4.00;3.70;;;17.20;99.90;;;;;;4967697;28;20193;-68
2021/06/24 05:23:29;;;;;;;4.47;4.00;;;17.30;99.90;;;;;;4995604;28;20665;-68
2021/06/24 05:25:55;;;;;;;4.40;4.00;;;17.30;99.90;;;;;;4985020;28;20650;-68
2021/06/24 05:28:20;;;;;;;4.73;4.13;;;17.30;99.90;;;;;;4985236;28;21926;-68
2021/06/24 05:30:47;;;;;;;3.70;3.40;;;17.40;99.90;;;;;;4986997;28;20684;-69
2021/06/24 05:33:14;;;;;;;6.40;4.37;;;17.40;99.90;;;;;;4983098;28;20188;-69
2021/06/24 05:35:40;;;;;;;4.33;3.87;;;17.50;99.90;;;;;;5001709;28;21044;-68
2021/06/24 05:38:11;;;;;;;4.53;3.87;;;17.50;99.90;;;;;;4986503;28;20678;-68
2021/06/24 05:40:40;;;;;;;4.60;3.63;;;17.60;99.90;;;;;;4969551;28;20698;-68
2021/06/24 05:43:06;;;;;;;5.83;4.00;;;17.60;99.90;;;;;;5003063;28;20694;-68
2021/06/24 05:45:32;;;;;;;3.77;3.47;;;17.70;99.90;;;;;;4985324;28;20648;-68
2021/06/24 05:47:58;;;;;;;3.60;3.30;;;17.70;99.90;;;;;;4992081;28;20197;-68
2021/06/24 05:50:24;;;;;;;3.73;3.43;;;17.70;99.90;;;;;;4992632;28;20682;-68
2021/06/24 05:52:50;;;;;;;4.00;3.43;;;17.70;99.90;;;;;;4978742;28;20197;-68
2021/06/24 05:55:17;;;;;;;3.57;3.27;;;17.80;99.90;;;;;;4986736;28;20706;-68
2021/06/24 05:57:43;;;;;;;3.70;3.40;;;17.80;99.90;;;;;;4979200;28;20655;-68
2021/06/24 06:00:09;;;;;;;4.00;3.70;;;17.80;99.90;;;;;;4978035;28;20687;-69
2021/06/24 06:02:35;;;;;;;3.43;3.20;;;17.80;99.90;;;;;;4978712;28;20673;-68
2021/06/24 06:05:00;;;;;;;4.10;3.43;;;17.90;99.90;;;;;;4964297;28;20720;-68
2021/06/24 06:07:26;;;;;;;3.77;3.47;;;17.90;99.90;;;;;;4985628;28;20264;-68
2021/06/24 06:09:51;;;;;;;4.20;3.80;;;17.90;99.90;;;;;;4967709;28;20228;-68
2021/06/24 06:12:17;;;;;;;3.77;3.47;;;17.90;99.90;;;;;;4987762;28;20267;-68
2021/06/24 06:14:43;;;;;;;4.67;3.63;;;18.00;99.90;;;;;;4970118;28;20508;-69
2021/06/24 06:17:08;;;;;;;4.47;3.20;;;18.00;99.90;;;;;;4989758;28;20276;-69
2021/06/24 06:19:34;;;;;;;4.73;3.70;;;18.10;99.90;;;;;;4993878;28;20266;-69
2021/06/24 06:22:00;;;;;;;4.80;3.57;;;18.10;99.90;;;;;;4977981;28;20182;-69
2021/06/24 06:24:25;;;;;;;5.03;3.77;;;18.10;99.90;;;;;;4993520;28;20688;-69
2021/06/24 06:26:51;;;;;;;4.80;3.80;;;18.20;99.90;;;;;;4971662;28;20231;-69
2021/06/24 06:29:16;;;;;;;4.90;3.83;;;18.20;99.90;;;;;;4996134;28;20241;-68
2021/06/24 06:31:42;;;;;;;5.30;3.83;;;18.10;99.90;;;;;;4981108;28;20244;-69
2021/06/24 06:34:08;;;;;;;4.07;3.63;;;18.20;99.90;;;;;;4966993;28;20214;-69
2021/06/24 06:36:34;;;;;;;6.37;4.30;;;18.20;99.90;;;;;;4988970;28;20239;-68
2021/06/24 06:39:00;;;;;;;4.20;3.73;;;18.20;99.90;;;;;;4991991;28;20656;-68
2021/06/24 06:41:26;;;;;;;3.97;3.53;;;18.10;99.90;;;;;;4991694;28;20694;-68
2021/06/24 06:43:52;;;;;;;4.10;3.70;;;18.10;99.90;;;;;;4991911;28;20199;-69
2021/06/24 06:46:17;;;;;;;4.40;4.00;;;18.20;99.90;;;;;;4987398;28;20588;-68
2021/06/24 06:48:43;;;;;;;3.90;3.60;;;18.20;99.90;;;;;;4968241;28;20205;-69
2021/06/24 06:51:09;;;;;;;3.80;3.50;;;18.20;99.90;;;;;;4997698;28;20296;-67
2021/06/24 06:53:34;;;;;;;4.50;3.87;;;18.10;99.90;;;;;;4998623;28;20285;-69
2021/06/24 06:56:00;;;;;;;3.90;3.30;;;18.20;99.90;;;;;;4991538;28;20648;-69
2021/06/24 06:58:26;;;;;;;3.90;3.60;;;18.10;99.90;;;;;;4998573;28;20216;-70
2021/06/24 07:00:51;;;;;;;4.03;3.63;;;18.30;99.90;;;;;;5006468;28;20245;-71
2021/06/24 07:03:17;;;;;;;4.77;3.90;;;18.20;99.90;;;;;;4991917;28;20633;-70
2021/06/24 07:05:42;;;;;;;5.63;3.70;;;18.20;99.90;;;;;;4956830;28;20229;-70
2021/06/24 07:08:08;;;;;;;3.70;3.33;;;18.30;99.90;;;;;;4992945;28;20529;-70
2021/06/24 07:10:34;;;;;;;4.07;3.37;;;18.40;99.90;;;;;;4993762;28;20647;-70
2021/06/24 07:13:00;;;;;;;5.23;3.47;;;18.50;99.90;;;;;;4994118;28;20379;-71
2021/06/24 07:15:26;;;;;;;4.37;3.63;;;18.60;99.90;;;;;;4989798;28;20307;-70
2021/06/24 07:17:52;;;;;;;3.90;3.60;;;18.70;99.90;;;;;;4971469;28;20706;-70
2021/06/24 07:20:17;;;;;;;4.07;3.40;;;18.80;99.90;;;;;;4974812;28;20303;-70
2021/06/24 07:22:43;;;;;;;4.40;3.57;;;18.80;99.90;;;;;;4988434;28;20193;-70
2021/06/24 07:25:10;;;;;;;6.00;3.73;;;18.90;99.90;;;;;;4978673;28;20603;-70
2021/06/24 07:27:36;;;;;;;4.80;3.43;;;19.00;99.90;;;;;;4989957;28;21041;-69
2021/06/24 07:30:04;;;;;;;3.60;3.30;;;19.10;99.90;;;;;;4974034;28;20750;-69
2021/06/24 07:32:29;;;;;;;3.97;3.43;;;19.20;99.90;;;;;;4968757;28;20189;-70
2021/06/24 07:34:55;;;;;;;3.80;3.50;;;19.20;99.90;;;;;;4984314;28;20652;-70
2021/06/24 07:37:20;;;;;;;3.33;3.13;;;19.30;99.90;;;;;;4980827;28;20197;-70
2021/06/24 07:39:46;;;;;;;3.33;3.00;;;19.30;99.90;;;;;;4955256;28;20217;-70
2021/06/24 07:42:12;;;;;;;3.40;3.10;;;19.40;99.90;;;;;;4978724;28;20197;-70
2021/06/24 07:44:40;;;;;;;3.40;3.10;;;19.50;99.90;;;;;;4974806;28;20193;-70
2021/06/24 07:47:05;;;;;;;3.37;3.17;;;19.60;99.90;;;;;;4974224;28;21955;-70
2021/06/24 07:49:31;;;;;;;3.30;3.00;;;19.60;99.90;;;;;;4982779;28;20659;-69
2021/06/24 07:51:57;;;;;;;2.73;2.53;;;19.80;99.90;;;;;;4982392;28;21086;-69
2021/06/24 07:54:22;;;;;;;2.80;2.60;;;19.90;99.90;;;;;;4976063;28;20217;-69
2021/06/24 07:56:48;;;;;;;3.97;3.40;;;20.00;99.90;;;;;;4986642;28;20635;-69
2021/06/24 07:59:15;;;;;;;3.00;2.80;;;20.10;99.90;;;;;;5012312;28;20703;-70
2021/06/24 08:01:42;;;;;;;3.40;3.13;;;20.20;99.90;;;;;;4980048;28;20255;-70
2021/06/24 08:04:08;;;;;;;3.53;3.27;;;20.30;99.90;;;;;;4975296;28;21002;-70
2021/06/24 08:06:33;;;;;;;3.77;3.47;;;20.40;99.90;;;;;;4986454;28;21213;-70
2021/06/24 08:08:59;;;;;;;3.00;2.80;;;20.50;99.90;;;;;;4971540;28;20755;-70
2021/06/24 08:11:25;;;;;;;3.50;3.20;;;20.50;99.90;;;;;;4987999;28;20189;-70
2021/06/24 08:13:50;;;;;;;3.57;3.27;;;20.40;99.90;;;;;;4995698;28;20193;-69
2021/06/24 08:16:16;;;;;;;3.27;2.97;;;20.40;99.90;;;;;;4971089;28;20236;-70
2021/06/24 08:18:42;;;;;;;3.30;3.00;;;20.40;99.90;;;;;;4994515;28;20220;-70
2021/06/24 08:21:08;;;;;;;3.47;3.07;;;20.50;99.90;;;;;;4983284;28;20201;-71
2021/06/24 08:23:34;;;;;;;4.63;3.10;;;20.50;99.90;;;;;;4996105;28;20723;-70
2021/06/24 08:25:59;;;;;;;4.63;3.70;;;20.40;99.90;;;;;;4961699;28;20640;-69
2021/06/24 08:28:25;;;;;;;3.57;3.37;;;20.50;99.90;;;;;;4977483;28;20214;-70
2021/06/24 08:30:52;;;;;;;4.73;3.30;;;20.60;99.90;;;;;;4977568;28;20190;-70
2021/06/24 08:33:18;;;;;;;3.37;3.07;;;20.60;99.90;;;;;;4975334;28;20269;-70
2021/06/24 08:35:44;;;;;;;5.30;3.63;;;20.70;99.90;;;;;;4984929;28;21655;-70
2021/06/24 08:38:15;;;;;;;8.03;3.40;;;20.70;99.90;;;;;;4985666;28;20225;-70
2021/06/24 08:40:41;;;;;;;3.60;3.30;;;20.70;99.90;;;;;;4994800;28;20639;-72
2021/06/24 08:43:08;;;;;;;4.20;3.83;;;20.70;99.90;;;;;;4995422;28;20655;-71
2021/06/24 08:45:34;;;;;;;4.67;3.50;;;20.70;99.90;;;;;;4991673;28;20647;-69
2021/06/24 08:48:01;;;;;;;4.07;3.10;;;20.80;99.90;;;;;;4986804;28;20624;-69
2021/06/24 08:50:27;;;;;;;3.60;3.40;;;20.90;99.90;;;;;;4973387;28;20248;-69
2021/06/24 08:52:55;;;;;;;5.40;3.87;;;20.80;99.90;;;;;;4986545;28;20652;-69
2021/06/24 08:55:21;;;;;;;4.20;3.47;;;20.80;99.90;;;;;;4983522;28;20690;-69
2021/06/24 08:57:47;;;;;;;5.20;3.77;;;20.90;99.90;;;;;;4988914;28;20635;-69
2021/06/24 09:00:13;;;;;;;4.30;3.90;;;20.90;99.90;;;;;;4960136;28;20667;-69
2021/06/24 09:02:45;;;;;;;3.73;3.43;;;20.90;99.90;;;;;;4978981;28;20620;-69
2021/06/24 09:05:12;;;;;;;4.03;3.50;;;20.90;99.90;;;;;;5000499;28;21422;-69
2021/06/24 09:07:55;;;;;;;4.73;3.53;;;21.00;99.90;;;;;;4982256;28;20624;-69
2021/06/24 09:10:22;;;;;;;3.60;3.30;;;21.10;99.90;;;;;;4966103;28;20855;-68
2021/06/24 09:13:03;;;;;;;4.60;3.33;;;21.10;99.90;;;;;;4989250;28;20628;-68
2021/06/24 09:15:38;;;;;;;3.70;3.40;;;21.20;99.90;;;;;;4984313;28;20734;-68
2021/06/24 09:18:21;;;;;;;4.20;3.33;;;21.30;99.90;;;;;;5004436;28;20678;-68
2021/06/24 09:20:47;;;;;;;3.53;3.23;;;21.30;99.90;;;;;;4999471;28;20982;-68
2021/06/24 09:23:24;;;;;;;3.43;3.13;;;21.30;99.90;;;;;;4999339;28;20646;-68
2021/06/24 09:26:14;;;;;;;3.37;3.17;;;21.10;99.90;;;;;;4989193;28;20667;-68
2021/06/24 09:28:42;;;;;;;3.90;3.60;;;21.20;99.90;;;;;;4993189;28;23212;-68
2021/06/24 09:31:24;;;;;;;3.20;3.00;;;21.20;99.90;;;;;;5007237;28;21080;-67
2021/06/24 09:33:50;;;;;;;3.50;3.20;;;21.20;99.90;;;;;;5002302;28;20699;-68
2021/06/24 09:36:32;;;;;;;3.10;2.90;;;21.10;99.90;;;;;;5014334;28;20654;-69
2021/06/24 09:38:57;;;;;;;3.60;3.30;;;21.10;99.90;;;;;;4984637;28;20640;-68
2021/06/24 09:41:23;;;;;;;3.60;3.30;;;21.00;99.90;;;;;;4986448;28;20657;-68
2021/06/24 09:43:48;;;;;;;3.50;3.27;;;20.90;99.90;;;;;;4992893;28;20244;-69
2021/06/24 09:46:19;;;;;;;3.37;3.10;;;20.90;99.90;;;;;;4989944;28;20779;-69
2021/06/24 09:48:51;;;;;;;3.17;2.97;;;20.90;99.90;;;;;;4985973;28;20209;-69
2021/06/24 09:51:30;;;;;;;3.60;3.40;;;20.90;99.90;;;;;;4988843;28;21225;-69
2021/06/24 09:54:06;;;;;;;3.67;3.37;;;20.90;99.90;;;;;;4992421;28;20640;-69
2021/06/24 09:56:32;;;;;;;3.73;3.43;;;20.80;99.90;;;;;;4973392;28;21048;-70
2021/06/24 09:59:04;;;;;;;3.80;3.53;;;20.70;99.90;;;;;;4996367;28;20816;-70
2021/06/24 10:01:32;;;;;;;3.80;3.50;;;20.70;99.90;;;;;;5010766;28;20683;-68
2021/06/24 10:04:00;;;;;;;4.37;3.97;;;20.70;99.90;;;;;;5005848;28;20616;-69
2021/06/24 10:06:27;;;;;;;4.83;4.33;;;20.60;99.90;;;;;;5004315;28;20686;-70
2021/06/24 10:08:54;;;;;;;4.53;4.10;;;20.80;99.90;;;;;;4994404;28;21428;-69
2021/06/24 10:11:22;;;;;;;4.60;4.30;;;20.90;99.90;;;;;;4992541;28;20660;-70
2021/06/24 10:13:48;;;;;;;3.87;3.57;;;20.80;99.90;;;;;;4998110;28;20636;-68
2021/06/24 10:16:15;;;;;;;4.40;4.00;;;20.70;99.90;;;;;;4995717;28;21010;-68
2021/06/24 10:18:46;;;;;;;4.80;4.50;;;20.80;99.90;;;;;;5012897;28;21150;-68
2021/06/24 10:21:13;;;;;;;5.00;4.60;;;20.80;99.90;;;;;;4973213;28;20719;-69
2021/06/24 10:23:39;;;;;;;4.47;4.17;;;20.80;99.90;;;;;;4992848;28;21608;-69
2021/06/24 10:26:05;;;;;;;4.30;4.00;;;21.00;99.90;;;;;;5013390;28;20669;-68
2021/06/24 10:28:31;;;;;;;5.50;5.10;;;21.20;99.90;;;;;;5004834;28;20755;-70
2021/06/24 10:30:57;;;;;;;4.33;4.00;;;21.20;99.90;;;;;;5010347;28;20616;-68
2021/06/24 10:33:22;;;;;;;4.60;4.30;;;21.30;99.90;;;;;;4989535;28;20295;-69
2021/06/24 10:35:52;;;;;;;4.60;4.30;;;21.50;99.90;;;;;;4983860;28;20634;-70
2021/06/24 10:38:19;;;;;;;4.57;4.27;;;21.50;99.90;;;;;;4994386;28;20890;-68
2021/06/24 10:41:02;;;;;;;5.00;4.47;;;21.60;99.90;;;;;;4992309;28;21064;-68
2021/06/24 10:43:45;;;;;;;4.57;4.20;;;21.40;99.90;;;;;;4994801;28;20627;-68
2021/06/24 10:46:20;;;;;;;4.90;4.60;;;21.40;99.90;;;;;;4987083;28;20798;-68
2021/06/24 10:48:46;;;;;;;5.00;4.57;;;21.40;99.90;;;;;;4994260;28;21251;-71
2021/06/24 10:51:14;;;;;;;5.70;5.20;;;21.40;99.90;;;;;;4990928;28;20717;-69
2021/06/24 10:53:40;;;;;;;5.87;5.47;;;21.40;99.90;;;;;;4985420;28;20415;-68
2021/06/24 10:56:21;;;;;;;5.30;4.80;;;21.50;99.90;;;;;;4996285;28;20824;-68
2021/06/24 10:58:46;;;;;;;5.10;4.80;;;21.50;99.90;;;;;;4991028;28;20663;-68
2021/06/24 11:01:12;;;;;;;5.23;4.73;;;21.60;99.90;;;;;;4991651;28;20637;-68
2021/06/24 11:03:41;;;;;;;5.57;5.17;;;21.70;99.90;;;;;;4999165;28;20272;-68
2021/06/24 11:06:40;;;;;;;4.97;4.57;;;21.80;99.90;;;;;;4988533;28;20234;-69
2021/06/24 11:09:14;;;;;;;5.70;5.20;;;21.90;99.90;;;;;;4967924;28;20660;-68
2021/06/24 11:11:42;;;;;;;4.70;4.30;;;21.90;99.90;;;;;;5007299;28;20638;-68
2021/06/24 11:14:07;;;;;;;4.43;4.13;;;21.90;99.90;;;;;;4997181;28;20728;-68
2021/06/24 11:16:33;;;;;;;5.00;4.60;;;21.90;99.90;;;;;;5006281;28;21289;-70
2021/06/24 11:19:09;;;;;;;4.03;3.73;;;21.90;99.90;;;;;;4995853;28;20324;-68
2021/06/24 11:21:34;;;;;;;3.83;3.57;;;21.90;99.90;;;;;;4995361;28;20189;-70
2021/06/24 11:24:07;;;;;;;4.37;4.07;;;22.00;99.90;;;;;;5008013;28;20652;-68
2021/06/24 11:26:41;;;;;;;4.97;3.60;;;22.10;99.90;;;;;;4993890;28;20296;-69
2021/06/24 11:29:56;;;;;;;4.30;3.90;;;22.20;99.90;;;;;;4997906;28;20651;-69
2021/06/24 11:32:10;;;;;;;3.93;3.73;;;22.10;99.90;;;;;;4989525;28;20638;-68
2021/06/24 11:34:53;;;;;;;4.33;3.93;;;22.10;99.90;;;;;;4998331;28;20670;-68
2021/06/24 11:37:29;;;;;;;4.50;4.10;;;22.00;99.90;;;;;;5012288;28;20734;-67
2021/06/24 11:40:00;;;;;;;3.47;3.17;;;21.90;99.90;;;;;;5012325;28;21036;-68
2021/06/24 11:42:30;;;;;;;4.10;3.80;;;21.90;99.90;;;;;;4987243;28;20708;-68
2021/06/24 11:44:57;;;;;;;4.23;3.93;;;21.80;99.90;;;;;;5008829;28;21250;-67
2021/06/24 11:47:29;;;;;;;4.90;3.83;;;21.90;99.90;;;;;;4985389;28;20678;-68
2021/06/24 12:04:09;;;;;;;4.97;4.20;;;21.90;99.90;;;;;;5053698;28;21240;-68
2021/06/24 12:06:54;;;;;;;3.80;3.50;;;21.80;99.90;;;;;;5028296;28;20641;-66
2021/06/24 12:09:22;;;;;;;3.87;3.57;;;21.90;99.90;;;;;;5036782;28;20689;-66
2021/06/24 12:11:59;;;;;;;4.50;4.10;;;21.90;99.90;;;;;;5041946;28;20628;-65
2021/06/24 12:14:35;;;;;;;3.90;3.70;;;22.00;99.90;;;;;;5050483;28;20653;-65
2021/06/24 12:17:05;;;;;;;4.50;3.50;;;22.10;99.90;;;;;;5041040;28;20648;-64
2021/06/24 12:20:03;;;;;;;4.60;4.20;;;22.10;99.90;;;;;;5047443;28;20829;-66
2021/06/24 12:22:32;;;;;;;4.10;3.80;;;22.20;99.90;;;;;;5033609;28;20632;-67
2021/06/24 12:25:01;;;;;;;3.77;3.50;;;22.20;99.90;;;;;;5048274;28;20616;-65
2021/06/24 12:27:39;;;;;;;5.30;4.80;;;22.30;99.90;;;;;;5046571;28;21060;-66
2021/06/24 12:30:20;;;;;;;3.60;3.30;;;22.40;99.90;;;;;;5051197;28;21067;-68
2021/06/24 12:32:59;;;;;;;3.70;3.40;;;22.40;99.90;;;;;;5049373;28;20641;-68
2021/06/24 12:35:29;;;;;;;4.13;3.73;;;22.60;99.90;;;;;;5050448;28;20714;-67
2021/06/24 12:37:58;;;;;;;4.07;3.70;;;22.70;99.90;;;;;;5055224;28;20614;-67
2021/06/24 12:40:27;;;;;;;4.30;3.97;;;22.70;99.90;;;;;;5065928;28;20650;-70
2021/06/24 12:42:56;;;;;;;5.37;3.80;;;22.80;99.90;;;;;;5055360;28;20618;-70
2021/06/24 12:45:24;;;;;;;3.70;3.40;;;22.80;99.90;;;;;;5038723;28;20653;-70
2021/06/24 12:47:50;;;;;;;4.20;3.80;;;22.90;99.90;;;;;;5042504;28;20810;-72
2021/06/24 12:50:28;;;;;;;3.50;3.20;;;23.00;99.90;;;;;;5041332;28;20672;-70
2021/06/24 12:53:07;;;;;;;4.27;3.90;;;23.10;99.90;;;;;;5061327;28;21207;-71
2021/06/24 12:55:48;;;;;;;4.10;3.90;;;23.10;99.90;;;;;;5053510;28;20649;-70
2021/06/24 12:58:21;;;;;;;6.30;4.03;;;23.00;99.90;;;;;;5052655;28;20792;-71
2021/06/24 13:01:00;;;;;;;3.97;3.67;;;23.00;99.90;;;;;;5057393;28;20622;-65
2021/06/24 13:03:34;;;;;;;3.97;3.67;;;23.00;99.90;;;;;;5055832;28;20736;-66